• Join FlightAware (Why Join?)
  • Login
  • US Flag 
02:00AM EST


 

Airport Tracker/Info


-or-


 

Live Flight TrackerFlight Track Log ✈ RPA6458 ✈ 29-Jun-2013 ✈ KMBS - KPIT

Flight Track Log - Related Links

Times and Time Zones

All times are in EDT time to prevent confusion due to time zone crossing. See the RPA6458 flight status page for this flight to view local times or setup timezone preferences in your user account.

Time Position Orientation Groundspeed Altitude Reporting Facility
EDT Latitude Longitude Course Direction KTS MPH feet Rate Location/Type
01:39PM 43.4908 -83.8739 206° Southwest 276 318 7,900  Level Cleveland Center
01:40PM 43.4647 -83.7639 108° East 296 341 10,200 2,640 Climbing Cleveland Center
01:41PM 43.4003 -83.6806 137° Southeast 301 346 13,200 2,820 Climbing Cleveland Center
01:42PM 43.3186 -83.6136 149° Southeast 318 366 15,900 2,700 Climbing Cleveland Center
01:43PM 43.2607 -83.5757 196° South  Level FlightAware Approximate
01:43PM 43.2211 -83.6003 174° South 318 366 18,700  Level Cleveland Center
01:44PM 43.1676 -83.6216 206° Southwest  Level FlightAware Approximate
01:44PM 43.1192 -83.5869 175° South 343 395 21,200  Level Cleveland Center
01:45PM 43.0133 -83.5731 175° South 366 421 23,300 2,100 Climbing Cleveland Center
01:46PM 42.9144 -83.5231 160° South 382 440 25,400 1,800 Climbing Cleveland Center
01:47PM 42.8383 -83.4089 132° Southeast 377 434 27,000 780 Climbing Cleveland Center
01:48PM 42.7578 -83.2894 133° Southeast 402 463 27,000  Level Cleveland Center
01:49PM 42.6792 -83.1703 132° Southeast 414 476 27,000  Level Cleveland Center
01:50PM 42.5964 -83.0511 133° Southeast 427 491 27,000  Level Cleveland Center
01:51PM 42.5133 -82.9325 134° Southeast 427 491 27,000  Level Cleveland Center
01:52PM 42.4344 -82.8086 131° Southeast 427 491 27,000  Level Cleveland Center
01:53PM 42.3683 -82.6742 124° Southeast 433 498 27,000  Level Cleveland Center
01:54PM 42.3100 -82.5542 123° Southeast 433 498 27,000  Level Cleveland Center
01:55PM 42.2667 -82.3986 111° Southeast 426 490 27,000  Level Cleveland Center
01:56PM 42.2189 -82.2514 114° Southeast 426 490 27,000  Level Cleveland Center
01:57PM 42.1689 -82.0875 112° Southeast 426 490 27,000  Level Cleveland Center
01:58PM 42.1228 -81.9353 112° Southeast 431 496 27,000  Level Cleveland Center
01:59PM 42.0806 -81.8000 113° Southeast 436 502 27,000  Level Cleveland Center
02:00PM 42.0322 -81.6511 114° Southeast 436 502 27,000  Level Cleveland Center
02:01PM 41.9833 -81.5022 114° Southeast 436 502 27,000  Level Cleveland Center
02:02PM 41.9367 -81.3508 112° Southeast 436 502 27,000  Level Cleveland Center
02:03PM 41.8875 -81.2050 114° Southeast 436 502 27,000  Level Cleveland Center
02:04PM 41.8339 -81.0431 114° Southeast 436 502 27,000 -300 Level Cleveland Center
02:05PM 41.7867 -80.8950 113° Southeast 436 502 26,400 -960 Descending Cleveland Center
02:06PM 41.7369 -80.7500 115° Southeast 436 502 25,200 -1,200 Descending Cleveland Center
02:07PM 41.6889 -80.6025 114° Southeast 436 502 24,100 -1,140 Descending Cleveland Center
02:08PM 41.6181 -80.4858 129° Southeast 418 481 23,000 -600 Descending Cleveland Center
02:09PM 41.5283 -80.3917 142° Southeast 407 468 23,000 -120 Level Cleveland Center
02:10PM 41.4386 -80.3006 143° Southeast 407 468 22,800 -960 Descending Cleveland Center
02:11PM 41.3444 -80.2208 148° Southeast 412 474 21,100 -1,800 Descending Cleveland Center
02:12PM 41.2503 -80.1439 148° Southeast 402 463 19,300 -1,920 Descending Cleveland Center
02:13PM 41.1461 -80.1308 175° South 379 436 17,300 -1,740 Descending Cleveland Center
02:14PM 41.0461 -80.1453 186° South 365 420 15,800 -1,380 Descending Cleveland Center
02:15PM 40.9525 -80.1900 200° South 365 420 14,600 -1,200 Descending Cleveland Center
02:16PM 40.8672 -80.2317 200° South 353 406 13,400 -1,440 Descending Cleveland Center
02:17PM 40.7900 -80.2622 197° South 320 368 11,700 -1,980 Descending Cleveland Center
02:18PM 40.7172 -80.2544 175° South 294 338 9,500 -2,160 Descending Cleveland Center
02:19PM 40.6378 -80.2467 176° South 289 333 7,400 -2,100 Descending Cleveland Center
02:20PM 40.5917 -80.1731 130° Southeast 260 299 5,400 -2,220 Descending Cleveland Center
02:21PM 40.5642 -80.0692 109° East 244 281 3,100 -1,200 Descending Cleveland Center
02:22PM 40.5078 -80.0478 164° South 213 245 3,000 -180 Descending Cleveland Center
02:23PM 40.4831 -80.0889 232° Southwest 136 157 2,800 -240 Descending Cleveland Center
02:25PM 40.4833 -80.2167 270° West  Level FlightAware Approximate
02:32PM 40.4915 -80.2329 270° West  Level Estimated